createdAt,value
2019-06-10T00:00:01.929Z,82.45
2019-06-10T00:05:03.775Z,83.07
2019-06-10T00:10:03.800Z,82.9
2019-06-10T00:15:03.344Z,82.67
2019-06-10T00:20:03.348Z,82.86
2019-06-10T00:25:03.843Z,82.05
2019-06-10T00:30:03.365Z,81.2
2019-06-10T00:35:04.635Z,82.23
2019-06-10T00:40:02.581Z,82.42
2019-06-10T00:45:05.333Z,82.33
2019-06-10T00:50:03.902Z,83.1
2019-06-10T00:55:03.288Z,82.77
2019-06-10T01:00:12.069Z,82.63
2019-06-10T01:05:01.394Z,83.32
2019-06-10T01:10:02.838Z,82.86
2019-06-10T01:15:03.247Z,83.07
2019-06-10T01:20:01.753Z,83.03
2019-06-10T01:25:01.924Z,83.47
2019-06-10T01:30:03.094Z,83.37
2019-06-10T01:35:01.737Z,84.21
2019-06-10T01:40:01.876Z,84.41
2019-06-10T01:45:02.009Z,84.37
2019-06-10T01:50:01.112Z,84.43
2019-06-10T01:55:01.668Z,84.21
2019-06-10T02:00:08.964Z,83.76
2019-06-10T02:05:01.556Z,83.86
2019-06-10T02:10:02.083Z,84.43
2019-06-10T02:15:01.404Z,85.14
2019-06-10T02:20:01.514Z,85.21
2019-06-10T02:25:01.645Z,85.54
2019-06-10T02:30:13.191Z,85.62
2019-06-10T02:35:08.933Z,85.2
2019-06-10T02:40:04.441Z,85.02
2019-06-10T02:45:03.844Z,84.31
2019-06-10T02:50:04.578Z,83.6
2019-06-10T02:55:04.287Z,83.57
2019-06-10T03:00:06.462Z,83.5
2019-06-10T03:05:04.603Z,82.85
2019-06-10T03:10:04.777Z,83.25
2019-06-10T03:15:02.113Z,83.16
2019-06-10T03:20:02.332Z,81.7
2019-06-10T03:25:02.898Z,80.35
2019-06-10T03:30:03.104Z,81.18
2019-06-10T03:35:05.049Z,83.05
2019-06-10T03:40:02.533Z,82.78
2019-06-10T03:45:03.378Z,83.82
2019-06-10T03:50:03.241Z,83.87
2019-06-10T03:55:03.010Z,83.85
2019-06-10T04:00:02.248Z,83.82
2019-06-10T04:05:02.765Z,83.53
2019-06-10T04:10:02.405Z,81.83
2019-06-10T04:15:03.034Z,83.57
2019-06-10T04:20:09.447Z,83.92
2019-06-10T04:25:03.034Z,81.06
2019-06-10T04:30:03.300Z,81.99
2019-06-10T04:35:02.254Z,82.98
2019-06-10T04:40:02.944Z,83.67
2019-06-10T04:45:03.106Z,84.94
2019-06-10T04:50:03.199Z,80.59
2019-06-10T04:55:02.587Z,80.17
2019-06-10T05:00:04.152Z,78.9
2019-06-10T05:05:02.931Z,77.52
2019-06-10T05:10:03.258Z,77.37
2019-06-10T05:15:03.513Z,80.22
2019-06-10T05:20:02.489Z,82.5
2019-06-10T05:25:02.498Z,76.93
2019-06-10T05:30:02.483Z,79.64
2019-06-10T05:35:03.525Z,80.77
2019-06-10T05:40:02.315Z,80.84
2019-06-10T05:45:03.139Z,77.16
2019-06-10T05:50:03.206Z,74.22
2019-06-10T05:55:02.868Z,72.72
2019-06-10T06:00:07.157Z,72.5
2019-06-10T06:05:02.626Z,67.67
2019-06-10T06:10:02.514Z,67
2019-06-10T06:15:02.324Z,71.31
2019-06-10T06:20:02.761Z,69.44
2019-06-10T06:25:03.719Z,72.16
2019-06-10T06:30:07.001Z,72.77
2019-06-10T06:35:02.249Z,73.94
2019-06-10T06:40:02.777Z,73.78
2019-06-10T06:45:03.019Z,74.04
2019-06-10T06:50:02.701Z,75.52
2019-06-10T06:55:02.589Z,75.78
2019-06-10T07:00:22.825Z,75.49
2019-06-10T07:05:03.194Z,75.07
2019-06-10T07:10:03.354Z,75.39
2019-06-10T07:15:04.157Z,75.78
2019-06-10T07:20:03.293Z,74.26
2019-06-10T07:25:06.370Z,73.93
2019-06-10T07:30:11.311Z,73.6
2019-06-10T07:35:02.953Z,72.53
2019-06-10T07:40:03.093Z,72.81
2019-06-10T07:45:02.531Z,72.28
2019-06-10T07:50:02.992Z,72.99
2019-06-10T07:55:02.479Z,73.32
2019-06-10T08:00:03.156Z,73.72
2019-06-10T08:05:03.732Z,72.78
2019-06-10T08:10:02.865Z,73.47
2019-06-10T08:15:02.789Z,71.24
2019-06-10T08:20:02.644Z,70.04
2019-06-10T08:25:04.958Z,69.32
2019-06-10T08:30:15.650Z,65.77
2019-06-10T08:35:02.794Z,70.02
2019-06-10T08:40:03.819Z,65.53
2019-06-10T08:45:03.441Z,68.67
2019-06-10T08:50:02.669Z,67
2019-06-10T08:55:03.403Z,65.28
2019-06-10T09:00:07.045Z,65.79
2019-06-10T09:05:03.712Z,65.83
2019-06-10T09:10:02.977Z,67.18
2019-06-10T09:15:03.723Z,62.78
2019-06-10T09:20:02.958Z,64.7
2019-06-10T09:25:02.984Z,64.42
2019-06-10T09:30:02.996Z,65.02
2019-06-10T09:35:03.473Z,63.48
2019-06-10T09:40:03.365Z,66.57
2019-06-10T09:45:02.605Z,65.8
2019-06-10T09:50:03.245Z,65.27
2019-06-10T09:55:02.792Z,64.98
2019-06-10T10:00:03.405Z,65.76
2019-06-10T10:05:01.562Z,65.53
2019-06-10T10:10:05.062Z,65.89
2019-06-10T10:15:22.254Z,63.61
2019-06-10T10:20:03.195Z,65.35
2019-06-10T10:25:03.032Z,65.01
2019-06-10T10:30:03.359Z,64.71
2019-06-10T10:35:03.053Z,65.93
2019-06-10T10:40:03.251Z,68.6
2019-06-10T10:45:02.777Z,63.74
2019-06-10T10:50:02.843Z,66.03
2019-06-10T10:55:06.446Z,65.35
2019-06-10T11:00:03.160Z,65.27
2019-06-10T11:05:01.452Z,64.13
2019-06-10T11:10:03.932Z,62.34
2019-06-10T11:15:04.925Z,65.48
2019-06-10T11:20:03.690Z,59.75
2019-06-10T11:25:01.960Z,60.81
2019-06-10T11:30:02.508Z,60.6
2019-06-10T11:35:02.933Z,61.61
2019-06-10T11:40:02.868Z,63.03
2019-06-10T11:45:02.918Z,63.8
2019-06-10T11:50:03.474Z,63.05
2019-06-10T11:55:11.686Z,62.93
2019-06-10T12:00:13.195Z,62.76
2019-06-10T12:05:04.054Z,64.29
2019-06-10T12:10:01.504Z,63.46
2019-06-10T12:15:01.733Z,65.6
2019-06-10T12:20:03.229Z,63.27
2019-06-10T12:25:26.866Z,63.93
2019-06-10T12:30:04.843Z,66.4
2019-06-10T12:35:05.022Z,66.24
2019-06-10T12:40:05.570Z,62.81
2019-06-10T12:45:05.953Z,63
2019-06-10T12:50:04.074Z,60.78
2019-06-10T12:55:02.410Z,61.53
2019-06-10T13:00:14.398Z,63.07
2019-06-10T13:05:04.758Z,66.44
2019-06-10T13:10:02.622Z,61.14
2019-06-10T13:15:04.752Z,67.86
2019-06-10T13:20:05.933Z,62.65
2019-06-10T13:25:02.744Z,60.58
2019-06-10T13:30:02.702Z,60.36
2019-06-10T13:35:03.662Z,59.28
2019-06-10T13:40:05.458Z,60.93
2019-06-10T13:45:04.861Z,60.77
2019-06-10T13:50:06.236Z,63.22
2019-06-10T13:55:03.461Z,58.2
2019-06-10T14:00:04.267Z,58.27
2019-06-10T14:05:06.752Z,59.66
2019-06-10T14:10:07.256Z,60.91
2019-06-10T14:15:04.114Z,60.23
2019-06-10T14:20:01.781Z,61.17
2019-06-10T14:25:03.375Z,59.18
2019-06-10T14:30:02.812Z,59.49
2019-06-10T14:35:01.695Z,60.24
2019-06-10T14:40:03.936Z,60.41
2019-06-10T14:45:01.517Z,62.69
2019-06-10T14:50:03.290Z,61.81
2019-06-10T14:55:02.638Z,64.6
2019-06-10T15:00:03.029Z,60.51
2019-06-10T15:05:02.773Z,60.43
2019-06-10T15:10:03.467Z,61.02
2019-06-10T15:15:01.672Z,61.24
2019-06-10T15:20:03.719Z,60.37
2019-06-10T15:25:03.187Z,60.65
2019-06-10T15:30:11.382Z,61.2
2019-06-10T15:35:03.355Z,60.49
2019-06-10T15:40:03.649Z,60.47
2019-06-10T15:45:02.522Z,59.69
2019-06-10T15:50:03.132Z,61.32
2019-06-10T15:55:04.144Z,62.26
2019-06-10T16:00:04.194Z,60.77
2019-06-10T16:05:02.046Z,59.97
2019-06-10T16:10:02.909Z,59.62
2019-06-10T16:15:02.675Z,59.67
2019-06-10T16:20:03.818Z,60.04
2019-06-10T16:25:03.443Z,60.55
2019-06-10T16:30:02.758Z,60.87
2019-06-10T16:35:04.019Z,62.47
2019-06-10T16:40:03.328Z,64.45
2019-06-10T16:45:02.532Z,62.38
2019-06-10T16:50:03.286Z,61.84
2019-06-10T16:55:02.280Z,62.04
2019-06-10T17:00:06.976Z,61.4
2019-06-10T17:05:03.177Z,60.88
2019-06-10T17:10:02.355Z,60.52
2019-06-10T17:15:03.456Z,61.15
2019-06-10T17:20:03.777Z,61.89
2019-06-10T17:25:02.113Z,62.2
2019-06-10T17:30:02.846Z,64.06
2019-06-10T17:35:02.296Z,64.84
2019-06-10T17:40:02.618Z,67.57
2019-06-10T17:45:02.534Z,66.06
2019-06-10T17:50:02.375Z,68.5
2019-06-10T17:55:03.359Z,69.53
2019-06-10T18:00:07.321Z,68.92
2019-06-10T18:05:03.223Z,67.69
2019-06-10T18:10:02.691Z,67.75
2019-06-10T18:15:03.539Z,66.69
2019-06-10T18:20:02.806Z,66.75
2019-06-10T18:25:03.063Z,67.67
2019-06-10T18:30:02.444Z,70.69
2019-06-10T18:35:02.908Z,71.22
2019-06-10T18:40:02.823Z,71.19
2019-06-10T18:45:02.697Z,71.54
2019-06-10T18:50:01.927Z,70.92
2019-06-10T18:55:03.336Z,71.19
2019-06-10T19:00:04.252Z,71.21
2019-06-10T19:05:02.820Z,72.91
2019-06-10T19:10:02.462Z,75.58
2019-06-10T19:15:02.796Z,75.65
2019-06-10T19:20:03.921Z,76.12
2019-06-10T19:25:03.637Z,77.27
2019-06-10T19:30:01.993Z,78.78
2019-06-10T19:35:02.831Z,79.39
2019-06-10T19:40:01.989Z,80.19
2019-06-10T19:45:03.041Z,80.83
2019-06-10T19:50:03.015Z,81.44
2019-06-10T19:55:02.654Z,82.92
2019-06-10T20:00:10.749Z,83.18
2019-06-10T20:05:02.314Z,84.31
2019-06-10T20:10:02.820Z,84.84
2019-06-10T20:15:02.245Z,85.8
2019-06-10T20:20:02.556Z,86.96
2019-06-10T20:25:03.795Z,87.4
2019-06-10T20:30:10.111Z,88.62
2019-06-10T20:35:02.980Z,89.64
2019-06-10T20:40:03.632Z,89.92
2019-06-10T20:45:04.579Z,90.73
2019-06-10T20:50:03.148Z,90.9
2019-06-10T20:55:03.013Z,90.18
2019-06-10T21:00:01.358Z,90.78
2019-06-10T21:05:02.790Z,89.43
2019-06-10T21:10:02.740Z,89.23
2019-06-10T21:15:02.338Z,89.72
2019-06-10T21:20:03.437Z,89.79
2019-06-10T21:25:02.341Z,89.42
2019-06-10T21:30:04.358Z,89.87
2019-06-10T21:35:03.083Z,89.91
2019-06-10T21:40:03.236Z,90.17
2019-06-10T21:45:03.438Z,90.22
2019-06-10T21:50:01.738Z,89.98
2019-06-10T21:55:02.984Z,90.29
2019-06-10T22:00:02.541Z,90.18
2019-06-10T22:05:03.301Z,90.2
2019-06-10T22:10:02.546Z,90.87
2019-06-10T22:15:01.816Z,90.98
2019-06-10T22:20:01.912Z,91.01
2019-06-10T22:25:02.940Z,90.2
2019-06-10T22:30:04.145Z,89.07
2019-06-10T22:35:03.051Z,88.88
2019-06-10T22:40:03.374Z,88.31
2019-06-10T22:45:03.986Z,84.93
2019-06-10T22:50:07.011Z,82.76
2019-06-10T22:55:03.537Z,81.51
2019-06-10T23:00:03.092Z,81.38
2019-06-10T23:05:04.992Z,80.42
2019-06-10T23:10:03.248Z,80.42
2019-06-10T23:15:05.024Z,80.06
2019-06-10T23:20:07.627Z,79.93
2019-06-10T23:25:07.852Z,79.84
2019-06-10T23:30:11.252Z,79.13
2019-06-10T23:35:07.882Z,79.13
2019-06-10T23:40:09.884Z,79.49
2019-06-10T23:45:05.166Z,80.54
2019-06-10T23:50:07.431Z,80.7
2019-06-10T23:55:10.291Z,79.79
